Time;durP1;ratioP1;P1;durP2;ratioP2;P2;SDS_P1;SDS_P2;PMS_P1;PMS_P2;Temp;Humidity;BMP_temperature;BMP_pressure;BME280_temperature;BME280_humidity;BME280_pressure;Samples;Min_cycle;Max_cycle;Signal;HPM_P1;HPM_P2
2022/12/02 00:02:29;;;;;;;1.73;0.80;;;;;;;3.13;93.44;96808.78;5135684;27;20043;-60
2022/12/02 00:04:58;;;;;;;1.50;1.27;;;;;;;3.19;93.61;96802.72;5135604;27;20095;-60
2022/12/02 00:07:26;;;;;;;0.88;0.88;;;;;;;3.25;93.02;96801.84;5135566;27;20047;-62
2022/12/02 00:09:53;;;;;;;0.80;0.80;;;;;;;3.28;93.09;96809.56;5135875;27;20096;-62
2022/12/02 00:12:22;;;;;;;1.00;0.90;;;;;;;3.40;93.16;96812.09;5135703;27;20047;-62
2022/12/02 00:14:56;;;;;;;0.80;0.80;;;;;;;3.48;92.66;96812.06;5135760;27;20051;-60
2022/12/02 00:17:23;;;;;;;0.90;0.90;;;;;;;3.57;92.26;96815.47;5135477;27;20039;-60
2022/12/02 00:19:52;;;;;;;0.82;0.82;;;;;;;3.61;91.75;96814.59;5135454;27;20095;-60
2022/12/02 00:22:19;;;;;;;1.02;1.00;;;;;;;3.59;91.78;96811.16;5135161;27;20123;-60
2022/12/02 00:24:47;;;;;;;4.63;1.17;;;;;;;3.62;91.75;96814.59;5134361;27;20536;-60
2022/12/02 00:27:14;;;;;;;1.23;1.13;;;;;;;3.64;91.70;96817.16;5135187;27;20126;-60
2022/12/02 00:29:41;;;;;;;1.25;1.15;;;;;;;3.69;91.09;96823.16;5135160;27;20472;-63
2022/12/02 00:32:08;;;;;;;1.50;1.38;;;;;;;3.70;91.27;96821.44;5135113;27;20412;-63
2022/12/02 00:34:35;;;;;;;4.40;1.73;;;;;;;3.67;90.90;96819.72;5135106;27;20039;-62
2022/12/02 00:37:04;;;;;;;2.10;1.90;;;;;;;3.66;90.98;96824.06;5135248;27;20054;-62
2022/12/02 00:39:31;;;;;;;2.80;1.80;;;;;;;3.67;90.93;96817.13;5134724;27;20071;-62
2022/12/02 00:41:58;;;;;;;1.92;1.65;;;;;;;3.70;90.85;96817.09;5134923;27;20413;-61
2022/12/02 00:47:09;;;;;;;2.10;1.90;;;;;;;3.81;90.83;96818.78;5135196;27;20462;-61
2022/12/02 00:49:36;;;;;;;2.00;1.70;;;;;;;3.88;90.60;96818.72;5134761;27;20138;-62
2022/12/02 00:52:05;;;;;;;1.40;1.30;;;;;;;3.91;90.54;96816.13;5134862;27;20151;-61
2022/12/02 00:54:32;;;;;;;2.20;1.50;;;;;;;3.92;90.47;96812.66;5134586;27;20058;-62
2022/12/02 00:57:00;;;;;;;1.10;1.00;;;;;;;3.94;90.40;96807.47;5134683;27;20047;-62
2022/12/02 00:59:27;;;;;;;1.38;1.27;;;;;;;3.91;90.16;96810.94;5134712;27;20054;-62
2022/12/02 01:01:54;;;;;;;1.48;1.38;;;;;;;3.93;89.86;96808.34;5134577;27;20043;-61
2022/12/02 01:04:21;;;;;;;3.80;1.38;;;;;;;3.94;90.07;96804.03;5134520;27;20043;-62
2022/12/02 01:06:48;;;;;;;1.67;1.50;;;;;;;4.02;89.97;96810.00;5134615;27;20086;-61
2022/12/02 01:09:16;;;;;;;1.60;1.50;;;;;;;4.07;89.93;96804.78;5134696;27;20126;-62
2022/12/02 01:11:43;;;;;;;1.90;1.55;;;;;;;4.10;89.58;96807.34;5134376;27;20130;-61
2022/12/02 01:14:11;;;;;;;2.75;1.48;;;;;;;4.10;89.75;96808.22;5134639;27;20122;-61
2022/12/02 01:16:38;;;;;;;2.00;1.60;;;;;;;4.12;89.69;96803.88;5134420;27;20066;-61
2022/12/02 01:19:05;;;;;;;1.40;1.30;;;;;;;4.14;89.33;96806.47;5134410;27;20085;-61
2022/12/02 01:21:32;;;;;;;1.60;1.50;;;;;;;4.14;89.51;96798.69;5134231;27;20051;-61
2022/12/02 01:24:03;;;;;;;1.40;1.30;;;;;;;4.20;89.36;96802.94;5134460;27;20053;-61
2022/12/02 01:26:34;;;;;;;1.30;1.20;;;;;;;4.20;89.43;96801.22;5134556;27;20047;-61
2022/12/02 01:29:01;;;;;;;;;;;;;;;4.25;89.21;96806.38;5134685;27;20066;-61
2022/12/02 01:31:28;;;;;;;2.90;1.40;;;;;;;4.22;89.36;96804.69;5134204;27;20265;-61
2022/12/02 01:33:55;;;;;;;1.55;1.10;;;;;;;4.26;89.50;96808.09;5134182;27;20039;-61
2022/12/02 01:36:22;;;;;;;1.75;1.27;;;;;;;4.30;89.09;96804.59;5134010;27;20109;-62
2022/12/02 01:38:49;;;;;;;2.60;1.00;;;;;;;4.28;89.02;96802.00;5133867;27;20070;-61
2022/12/02 01:41:16;;;;;;;1.13;1.02;;;;;;;4.30;89.31;96807.19;5134085;28;20043;-61
2022/12/02 01:43:45;;;;;;;1.08;1.00;;;;;;;4.32;88.91;96802.84;5133952;28;20047;-62
2022/12/02 01:46:12;;;;;;;1.10;1.00;;;;;;;4.27;88.79;96807.22;5134019;28;20043;-61
2022/12/02 01:48:40;;;;;;;3.33;1.33;;;;;;;4.24;88.77;96804.66;5133961;28;20393;-62
2022/12/02 01:51:07;;;;;;;0.88;0.88;;;;;;;4.24;89.15;96802.09;5134261;28;20047;-62
2022/12/02 01:53:36;;;;;;;0.88;0.80;;;;;;;4.25;89.13;96802.03;5133856;28;20050;-61
2022/12/02 01:56:03;;;;;;;0.90;0.90;;;;;;;4.27;88.81;96791.66;5133979;28;20043;-62
2022/12/02 01:58:31;;;;;;;1.10;1.00;;;;;;;4.29;88.62;96803.75;5134228;28;20047;-62
2022/12/02 02:00:59;;;;;;;1.42;1.20;;;;;;;4.29;88.70;96793.41;5133867;28;20068;-62
2022/12/02 02:03:26;;;;;;;1.30;1.20;;;;;;;4.28;88.93;96803.75;5133658;28;20089;-61
2022/12/02 02:05:54;;;;;;;1.40;1.30;;;;;;;4.32;88.77;96794.22;5133899;28;20039;-61
2022/12/02 02:08:22;;;;;;;1.30;1.20;;;;;;;4.36;89.16;96801.13;5133876;28;20044;-61
2022/12/02 02:10:50;;;;;;;1.00;1.00;;;;;;;4.36;88.23;96794.19;5133891;28;20074;-61
2022/12/02 02:13:17;;;;;;;1.30;1.00;;;;;;;4.25;88.48;96799.44;5133815;28;20091;-61
2022/12/02 02:15:46;;;;;;;1.33;1.00;;;;;;;4.17;88.65;96789.19;5133784;28;20065;-61
2022/12/02 02:18:16;;;;;;;1.10;1.10;;;;;;;3.99;89.41;96794.50;5133896;28;20047;-61
2022/12/02 02:20:43;;;;;;;1.15;1.05;;;;;;;3.95;89.93;96796.25;5133731;28;20412;-61
2022/12/02 02:23:25;;;;;;;1.50;1.15;;;;;;;3.87;90.43;96791.13;5133602;28;20093;-61
2022/12/02 02:25:54;;;;;;;1.25;1.15;;;;;;;3.81;90.83;96787.72;5133650;28;20143;-61
2022/12/02 02:28:23;;;;;;;1.17;1.10;;;;;;;3.71;91.14;96790.38;5133595;28;20051;-61
2022/12/02 02:30:51;;;;;;;1.20;1.10;;;;;;;3.73;91.69;96793.81;5133605;28;20050;-61
2022/12/02 02:33:19;;;;;;;1.25;0.98;;;;;;;3.74;91.76;96794.69;5133580;28;20523;-61
2022/12/02 02:35:47;;;;;;;1.13;1.00;;;;;;;3.64;92.17;96792.13;5133565;28;20050;-60
2022/12/02 02:38:18;;;;;;;1.17;1.10;;;;;;;3.61;92.45;96792.16;5133468;28;20137;-61
2022/12/02 02:40:47;;;;;;;;;;;;;;;3.65;92.55;96790.41;5133675;28;20048;-62
2022/12/02 02:43:15;;;;;;;1.38;1.10;;;;;;;3.60;92.74;96790.44;5133443;28;19920;-61
2022/12/02 02:45:44;;;;;;;0.90;0.90;;;;;;;3.63;92.98;96795.59;5133409;28;20065;-61
2022/12/02 02:48:13;;;;;;;2.40;1.00;;;;;;;3.64;92.82;96794.72;5136281;27;20089;-61
2022/12/02 02:50:43;;;;;;;1.30;1.15;;;;;;;3.63;92.59;96797.31;5137146;27;20043;-61
2022/12/02 02:53:11;;;;;;;0.85;0.85;;;;;;;3.63;92.79;96792.16;5137025;27;20086;-61
2022/12/02 02:55:38;;;;;;;1.10;1.00;;;;;;;3.63;93.18;96794.72;5137290;27;20557;-62
2022/12/02 02:58:16;;;;;;;0.95;0.95;;;;;;;3.60;93.05;96800.78;5137223;27;20070;-61
2022/12/02 03:00:46;;;;;;;0.73;0.73;;;;;;;3.61;93.04;96796.50;5137115;27;20047;-61
2022/12/02 03:03:17;;;;;;;1.02;0.98;;;;;;;3.50;93.21;96787.06;5137182;27;20055;-61
2022/12/02 03:05:45;;;;;;;0.90;0.60;;;;;;;3.47;93.20;96791.38;5136802;27;20054;-60
2022/12/02 03:08:13;;;;;;;0.60;0.60;;;;;;;3.42;93.12;96794.00;5136857;27;20054;-61
2022/12/02 03:10:40;;;;;;;0.65;0.65;;;;;;;3.35;93.42;96788.00;5136743;27;20043;-61
2022/12/02 03:13:08;;;;;;;0.50;0.50;;;;;;;3.28;93.63;96805.25;5137003;27;20509;-61
2022/12/02 03:15:37;;;;;;;0.60;0.60;;;;;;;3.19;93.85;96799.28;5136706;27;20130;-61
2022/12/02 03:18:04;;;;;;;0.68;0.50;;;;;;;3.10;93.60;96808.78;5136750;27;20048;-61
2022/12/02 03:20:31;;;;;;;0.50;0.50;;;;;;;3.03;93.57;96804.50;5136587;27;20456;-61
2022/12/02 03:22:58;;;;;;;1.25;0.50;;;;;;;2.93;93.78;96798.53;5136498;27;20092;-61
2022/12/02 03:25:25;;;;;;;0.65;0.65;;;;;;;2.88;94.38;96806.28;5136540;27;20134;-61
2022/12/02 03:27:52;;;;;;;0.82;0.50;;;;;;;2.86;94.63;96810.59;5136410;27;20545;-61
2022/12/02 03:30:19;;;;;;;0.60;0.60;;;;;;;2.81;94.87;96796.84;5136363;27;20498;-61
2022/12/02 03:32:48;;;;;;;0.47;0.47;;;;;;;2.82;95.09;96795.97;5136461;27;20457;-61
2022/12/02 03:35:15;;;;;;;0.50;0.50;;;;;;;2.82;95.41;96800.25;5136574;27;20079;-61
2022/12/02 03:37:43;;;;;;;0.68;0.50;;;;;;;2.83;95.70;96799.41;5136277;27;20047;-61
2022/12/02 03:40:11;;;;;;;0.50;0.50;;;;;;;2.88;95.62;96795.09;5136128;27;20096;-61
2022/12/02 03:42:39;;;;;;;0.50;0.50;;;;;;;2.94;95.26;96794.19;5136280;27;20051;-61
2022/12/02 03:45:08;;;;;;;0.40;0.40;;;;;;;2.95;95.17;96793.34;5136084;27;20400;-61
2022/12/02 03:47:36;;;;;;;0.50;0.50;;;;;;;2.98;95.00;96796.78;5136027;27;20396;-61
2022/12/02 03:50:06;;;;;;;0.40;0.40;;;;;;;3.00;94.59;96804.50;5136092;27;20047;-60
2022/12/02 03:52:34;;;;;;;0.50;0.50;;;;;;;2.99;94.52;96801.09;5136258;27;20047;-61
2022/12/02 03:55:01;;;;;;;0.30;0.30;;;;;;;2.99;94.64;96803.69;5135979;27;20468;-62
2022/12/02 03:57:32;;;;;;;0.75;0.50;;;;;;;3.04;94.88;96813.97;5136039;27;20043;-61
2022/12/02 03:59:59;;;;;;;0.50;0.50;;;;;;;3.07;94.20;96805.38;5135844;27;20126;-60
2022/12/02 04:02:27;;;;;;;0.50;0.50;;;;;;;3.09;93.78;96811.38;5135913;27;20489;-61
2022/12/02 04:04:54;;;;;;;0.43;0.43;;;;;;;3.13;93.57;96800.19;5135937;27;20541;-61
2022/12/02 04:07:22;;;;;;;2.55;0.55;;;;;;;3.15;92.52;96817.41;5135746;27;20066;-61
2022/12/02 04:09:49;;;;;;;0.40;0.40;;;;;;;3.09;92.28;96809.66;5135535;27;20065;-61
2022/12/02 04:12:17;;;;;;;1.52;0.50;;;;;;;3.08;92.48;96814.84;5135575;27;20043;-61
2022/12/02 04:14:44;;;;;;;0.85;0.40;;;;;;;3.05;92.55;96814.84;5135576;27;20496;-61
2022/12/02 04:17:11;;;;;;;0.30;0.30;;;;;;;3.08;92.71;96812.25;5135481;27;20450;-61
2022/12/02 04:19:38;;;;;;;0.45;0.40;;;;;;;3.08;92.36;96815.72;5135521;27;20085;-61
2022/12/02 04:22:05;;;;;;;0.50;0.50;;;;;;;3.10;92.60;96815.69;5135398;27;20088;-61
2022/12/02 04:24:33;;;;;;;0.43;0.43;;;;;;;3.09;92.73;96819.13;5135367;27;20083;-61
2022/12/02 04:27:00;;;;;;;0.40;0.40;;;;;;;2.99;92.31;96815.72;5135231;27;20047;-61
2022/12/02 04:29:28;;;;;;;0.40;0.40;;;;;;;3.01;91.97;96820.03;5135451;27;20050;-61
2022/12/02 04:31:55;;;;;;;2.08;0.50;;;;;;;2.99;91.80;96820.91;5135135;27;20084;-61
2022/12/02 04:34:22;;;;;;;0.57;0.57;;;;;;;3.00;92.21;96828.66;5135105;27;20039;-61
2022/12/02 04:36:49;;;;;;;0.50;0.50;;;;;;;3.02;92.06;96823.47;5135120;27;20043;-61
2022/12/02 04:39:16;;;;;;;0.30;0.30;;;;;;;3.03;91.67;96838.13;5134910;27;20083;-61
2022/12/02 04:41:44;;;;;;;0.30;0.30;;;;;;;3.05;91.32;96843.28;5134962;27;20046;-61
2022/12/02 04:44:12;;;;;;;0.40;0.40;;;;;;;3.04;91.77;96834.66;5134886;27;20051;-61
2022/12/02 04:46:39;;;;;;;0.88;0.40;;;;;;;3.09;91.34;96837.22;5135049;27;20475;-61
2022/12/02 04:49:06;;;;;;;0.35;0.35;;;;;;;3.11;91.16;96849.31;5134905;27;20412;-61
2022/12/02 04:51:33;;;;;;;0.35;0.35;;;;;;;3.13;90.93;96849.31;5134868;27;20079;-61
2022/12/02 04:54:00;;;;;;;0.30;0.30;;;;;;;3.10;91.43;96844.16;5134669;27;20047;-61
2022/12/02 04:56:27;;;;;;;0.40;0.40;;;;;;;3.18;91.36;96863.06;5134728;27;20054;-61
2022/12/02 04:58:56;;;;;;;0.75;0.40;;;;;;;3.24;91.67;96860.47;5134573;27;20126;-61
2022/12/02 05:01:23;;;;;;;0.43;0.43;;;;;;;3.30;91.46;96862.16;5134609;27;20046;-61
2022/12/02 05:03:50;;;;;;;0.40;0.40;;;;;;;3.41;91.61;96860.38;5134625;27;20054;-61
2022/12/02 05:06:17;;;;;;;0.50;0.50;;;;;;;3.51;91.36;96870.69;5134602;27;20043;-61
2022/12/02 05:08:44;;;;;;;1.33;0.70;;;;;;;3.60;90.91;96868.06;5134473;27;20519;-61
2022/12/02 05:11:11;;;;;;;0.50;0.50;;;;;;;3.67;90.75;96871.47;5134136;27;20047;-61
2022/12/02 05:13:39;;;;;;;0.43;0.40;;;;;;;3.72;90.80;96872.31;5134491;27;20086;-61
2022/12/02 05:16:07;;;;;;;1.60;0.40;;;;;;;3.78;90.46;96881.78;5134425;27;20470;-61
2022/12/02 05:18:34;;;;;;;0.30;0.30;;;;;;;3.85;90.12;96885.19;5134364;27;20122;-60
2022/12/02 05:21:01;;;;;;;4.68;0.40;;;;;;;3.90;89.91;96888.59;5134285;27;20047;-61
2022/12/02 05:23:28;;;;;;;0.40;0.40;;;;;;;3.93;89.55;96886.00;5134172;27;20107;-61
2022/12/02 05:25:55;;;;;;;0.50;0.50;;;;;;;3.95;89.48;96883.41;5134258;27;20070;-61
2022/12/02 05:28:23;;;;;;;0.60;0.60;;;;;;;3.99;89.47;96883.38;5134328;27;20496;-61
2022/12/02 05:30:50;;;;;;;0.40;0.40;;;;;;;4.04;88.88;96885.94;5134382;27;20043;-61
2022/12/02 05:33:18;;;;;;;1.63;0.80;;;;;;;4.01;88.75;96885.97;5134274;27;20039;-61
2022/12/02 05:35:45;;;;;;;0.50;0.50;;;;;;;4.04;88.70;96878.19;5134434;27;20511;-61
2022/12/02 05:38:12;;;;;;;0.40;0.40;;;;;;;4.05;88.85;96887.66;5134204;27;20118;-61
2022/12/02 05:40:39;;;;;;;0.40;0.40;;;;;;;4.06;88.91;96886.78;5133841;27;20452;-61
2022/12/02 05:43:17;;;;;;;0.55;0.40;;;;;;;4.09;88.79;96884.16;5134091;28;20117;-61
2022/12/02 05:45:44;;;;;;;2.10;0.52;;;;;;;4.10;88.76;96888.50;5134041;28;20058;-61
2022/12/02 05:48:13;;;;;;;0.47;0.47;;;;;;;4.12;88.73;96889.34;5134013;28;20043;-61
2022/12/02 05:50:42;;;;;;;0.50;0.50;;;;;;;4.19;88.60;96897.06;5134037;28;20475;-61
2022/12/02 05:53:15;;;;;;;0.50;0.50;;;;;;;4.15;88.06;96902.25;5134000;28;20108;-61
2022/12/02 05:55:43;;;;;;;0.40;0.40;;;;;;;4.11;88.41;96907.47;5133878;28;20451;-61
2022/12/02 05:58:12;;;;;;;0.57;0.57;;;;;;;4.14;88.42;96910.91;5133933;28;20055;-61
2022/12/02 06:00:39;;;;;;;0.40;0.40;;;;;;;4.16;88.32;96916.91;5133911;28;20069;-61
2022/12/02 06:03:16;;;;;;;0.45;0.45;;;;;;;4.23;88.66;96917.75;5133950;28;20154;-61
2022/12/02 06:05:45;;;;;;;0.50;0.50;;;;;;;4.23;88.23;96927.25;5133872;28;20082;-61
2022/12/02 06:08:17;;;;;;;0.60;0.60;;;;;;;4.24;87.54;96922.06;5133970;28;20050;-61
2022/12/02 06:10:48;;;;;;;0.50;0.50;;;;;;;4.21;86.98;96923.81;5133760;28;20126;-61
2022/12/02 06:13:20;;;;;;;0.47;0.47;;;;;;;4.17;86.78;96920.38;5133722;28;20566;-62
2022/12/02 06:15:48;;;;;;;0.65;0.40;;;;;;;4.19;86.70;96917.78;5133712;28;20065;-62
2022/12/02 06:18:18;;;;;;;0.40;0.40;;;;;;;4.24;87.04;96923.81;5133995;28;20043;-61
2022/12/02 06:20:48;;;;;;;0.60;0.60;;;;;;;4.27;87.21;96921.16;5133680;27;20516;-61
2022/12/02 06:23:18;;;;;;;1.73;0.60;;;;;;;4.27;87.61;96932.41;5136920;27;20480;-61
2022/12/02 06:25:46;;;;;;;0.80;0.80;;;;;;;4.32;87.44;96932.38;5122101;27;20083;-61
2022/12/02 06:28:23;;;;;;;0.70;0.70;;;;;;;4.35;87.25;96929.75;5117045;28;20047;-61
2022/12/02 06:30:51;;;;;;;0.57;0.57;;;;;;;4.37;87.85;96940.97;5117066;28;20055;-61
2022/12/02 06:33:29;;;;;;;0.60;0.60;;;;;;;4.40;87.59;96940.09;5116981;28;20071;-61
2022/12/02 06:36:01;;;;;;;0.70;0.70;;;;;;;4.36;87.14;96941.00;5116951;28;20058;-61
2022/12/02 06:38:30;;;;;;;0.85;0.80;;;;;;;4.31;86.66;96935.84;5116888;28;20512;-61
2022/12/02 06:41:00;;;;;;;0.90;0.90;;;;;;;4.31;86.47;96941.03;5116876;28;20040;-61
2022/12/02 06:43:31;;;;;;;0.88;0.63;;;;;;;4.25;86.09;96933.28;5116904;28;20104;-61
2022/12/02 06:45:58;;;;;;;;;;;;;;;4.25;86.02;96928.94;5117266;28;20047;-61
2022/12/02 06:48:31;;;;;;;0.90;0.80;;;;;;;4.09;86.89;96925.59;5116721;28;19920;-62
2022/12/02 06:51:12;;;;;;;16.65;11.45;;;;;;;4.01;87.06;96930.81;5116732;28;20077;-61
2022/12/02 06:53:39;;;;;;;;;;;;;;;4.04;87.62;96924.78;5117030;28;20132;-61
2022/12/02 06:56:14;;;;;;;3.40;1.30;;;;;;;3.97;88.80;96923.94;5116548;28;19926;-62
2022/12/02 06:58:43;;;;;;;1.40;1.30;;;;;;;3.92;89.26;96930.88;5116765;28;20077;-61
2022/12/02 07:01:24;;;;;;;1.05;0.80;;;;;;;3.94;89.75;96930.88;5116550;28;20054;-61
2022/12/02 07:04:04;;;;;;;1.23;1.13;;;;;;;3.97;90.31;96938.63;5116267;28;20458;-61
2022/12/02 07:06:34;;;;;;;5.00;1.38;;;;;;;3.99;90.13;96940.34;5116491;28;20130;-61
2022/12/02 07:09:03;;;;;;;1.58;1.30;;;;;;;3.98;90.34;96943.81;5116286;28;20052;-61
2022/12/02 07:11:53;;;;;;;1.05;1.00;;;;;;;3.98;90.03;96948.13;5116318;28;20104;-61
2022/12/02 07:14:27;;;;;;;1.08;0.98;;;;;;;4.00;90.57;96941.22;5116205;28;20051;-61
2022/12/02 07:16:55;;;;;;;0.95;0.95;;;;;;;3.98;90.62;96938.63;5116084;28;20556;-61
2022/12/02 07:19:27;;;;;;;2.45;1.50;;;;;;;4.03;90.06;96946.34;5116065;28;20084;-61
2022/12/02 07:21:57;;;;;;;1.02;0.98;;;;;;;4.06;89.98;96948.09;5115947;28;20082;-62
2022/12/02 07:24:25;;;;;;;0.85;0.85;;;;;;;4.15;90.04;96946.28;5115824;28;20127;-61
2022/12/02 07:26:52;;;;;;;0.80;0.80;;;;;;;4.21;90.14;96949.72;5116052;28;20472;-61
2022/12/02 07:29:28;;;;;;;1.13;0.95;;;;;;;4.30;90.05;96960.88;5115887;28;20052;-61
2022/12/02 07:31:56;;;;;;;1.13;1.00;;;;;;;4.39;90.27;96952.19;5115890;28;20636;-61
2022/12/02 07:34:23;;;;;;;1.85;1.25;;;;;;;4.50;90.27;96953.84;5115393;28;20048;-61
2022/12/02 07:36:50;;;;;;;1.45;1.35;;;;;;;4.60;90.30;96954.66;5115911;28;20052;-61
2022/12/02 07:39:19;;;;;;;1.30;1.17;;;;;;;4.70;90.37;96963.19;5115476;28;20101;-61
2022/12/02 07:41:46;;;;;;;1.40;1.30;;;;;;;4.82;90.00;96954.47;5115696;28;20101;-62
2022/12/02 07:44:13;;;;;;;1.58;1.48;;;;;;;4.85;89.56;96954.44;5115534;28;20134;-61
2022/12/02 07:46:40;;;;;;;1.60;1.40;;;;;;;4.97;89.72;96956.06;5115569;28;20058;-61
2022/12/02 07:49:07;;;;;;;1.20;1.10;;;;;;;5.06;89.42;96963.78;5115556;28;20083;-62
2022/12/02 07:51:34;;;;;;;2.92;1.48;;;;;;;5.14;89.19;96971.47;5115799;28;20047;-61
2022/12/02 07:54:01;;;;;;;0.88;0.88;;;;;;;5.20;88.63;96966.22;5115284;28;20086;-61
2022/12/02 07:56:30;;;;;;;0.77;0.75;;;;;;;5.15;86.74;96973.19;5115320;28;20130;-61
2022/12/02 07:58:57;;;;;;;0.70;0.70;;;;;;;5.16;87.12;96977.50;5115342;28;20043;-61
2022/12/02 08:01:24;;;;;;;45.42;28.98;;;;;;;5.10;87.13;96977.56;5115236;28;20044;-61
2022/12/02 08:03:51;;;;;;;2.40;2.17;;;;;;;5.04;86.72;96973.28;5115285;28;20047;-61
2022/12/02 08:06:19;;;;;;;1.55;1.30;;;;;;;5.12;88.09;96981.00;5115196;28;20048;-61
2022/12/02 08:08:46;;;;;;;1.48;1.23;;;;;;;5.18;88.57;96986.16;5115156;28;20500;-61
2022/12/02 08:11:13;;;;;;;0.80;0.80;;;;;;;5.17;87.76;96987.00;5115017;28;20466;-61
2022/12/02 08:13:42;;;;;;;2.35;0.80;;;;;;;5.16;87.63;96991.34;5115017;28;20142;-61
2022/12/02 08:16:10;;;;;;;0.90;0.90;;;;;;;5.22;87.53;96992.13;5115044;28;20051;-61
2022/12/02 08:18:37;;;;;;;1.90;1.05;;;;;;;5.22;88.28;96987.81;5114970;28;20554;-61
2022/12/02 08:21:04;;;;;;;4.38;1.00;;;;;;;5.19;87.50;96987.84;5115116;28;20047;-61
2022/12/02 08:23:31;;;;;;;1.17;1.08;;;;;;;5.10;88.98;96987.94;5114734;28;20493;-61
2022/12/02 08:25:58;;;;;;;1.25;1.13;;;;;;;5.07;89.20;96988.81;5114725;28;20055;-61
2022/12/02 08:28:25;;;;;;;0.80;0.80;;;;;;;5.01;89.29;96981.09;5114797;28;20047;-61
2022/12/02 08:30:54;;;;;;;1.40;1.30;;;;;;;5.02;90.03;96990.59;5114645;28;20489;-61
2022/12/02 08:33:22;;;;;;;1.55;1.30;;;;;;;5.06;89.65;96995.72;5114696;28;20113;-61
2022/12/02 08:35:49;;;;;;;1.50;1.08;;;;;;;5.08;90.02;96990.53;5114663;28;20546;-61
2022/12/02 08:38:17;;;;;;;1.15;1.08;;;;;;;5.04;90.42;96991.44;5114579;28;20040;-61
2022/12/02 08:40:44;;;;;;;1.45;1.35;;;;;;;4.97;90.65;96985.44;5114280;28;20485;-61
2022/12/02 08:43:11;;;;;;;1.65;1.55;;;;;;;4.95;91.06;96994.09;5114360;28;20052;-61
2022/12/02 08:45:39;;;;;;;1.70;1.60;;;;;;;4.88;90.60;96994.16;5113290;28;20138;-61
2022/12/02 08:48:07;;;;;;;1.80;1.60;;;;;;;4.92;91.38;97000.19;5114284;28;20443;-60
2022/12/02 08:50:34;;;;;;;1.90;1.80;;;;;;;4.96;92.16;97001.03;5114267;28;20481;-61
2022/12/02 08:53:02;;;;;;;2.25;1.60;;;;;;;4.98;92.32;96997.53;5114310;28;20050;-61
2022/12/02 08:55:30;;;;;;;2.22;1.90;;;;;;;5.05;92.57;96996.63;5114421;28;20571;-61
2022/12/02 08:57:57;;;;;;;3.28;2.10;;;;;;;5.02;91.94;96986.25;5113993;28;20059;-61
2022/12/02 09:00:25;;;;;;;3.70;1.83;;;;;;;5.01;91.23;96988.88;5114322;28;20134;-61
2022/12/02 09:02:52;;;;;;;2.33;2.10;;;;;;;5.03;90.87;96987.13;5114032;28;20489;-61
2022/12/02 09:05:20;;;;;;;2.60;2.10;;;;;;;5.05;92.21;96982.78;5113845;28;20485;-61
2022/12/02 09:07:47;;;;;;;3.05;2.20;;;;;;;5.08;92.60;96980.16;5113945;28;20047;-61
2022/12/02 09:10:15;;;;;;;2.15;1.95;;;;;;;5.20;92.55;96981.78;5113953;28;20051;-61
2022/12/02 09:12:42;;;;;;;3.03;1.83;;;;;;;5.39;93.01;96984.22;5113956;28;20051;-62
2022/12/02 09:15:11;;;;;;;1.55;1.45;;;;;;;5.49;91.76;96988.44;5113861;28;20051;-61
2022/12/02 09:17:38;;;;;;;1.65;1.40;;;;;;;5.56;90.17;96989.22;5113885;28;20050;-61
2022/12/02 09:20:06;;;;;;;2.30;1.80;;;;;;;5.58;89.79;96990.06;5113802;28;20043;-61
2022/12/02 09:22:35;;;;;;;2.80;1.90;;;;;;;5.49;89.36;96985.84;5113835;28;20443;-61
2022/12/02 09:25:02;;;;;;;2.00;1.80;;;;;;;5.43;88.71;96986.75;5113669;28;20116;-62
2022/12/02 09:27:30;;;;;;;21.35;13.63;;;;;;;5.37;89.27;96992.00;5113769;28;20047;-61
2022/12/02 09:29:57;;;;;;;2.55;2.13;;;;;;;5.32;89.04;96980.81;5113735;28;20044;-62
2022/12/02 09:32:25;;;;;;;2.38;1.95;;;;;;;5.35;89.36;96992.88;5113679;28;20127;-61
2022/12/02 09:34:52;;;;;;;1.73;1.30;;;;;;;5.29;89.18;96999.84;5113580;28;20051;-62
2022/12/02 09:37:19;;;;;;;1.58;1.48;;;;;;;5.29;89.67;97001.59;5113761;28;20043;-61
2022/12/02 09:39:48;;;;;;;2.05;1.40;;;;;;;5.37;90.35;96997.19;5113525;28;20055;-61
2022/12/02 09:42:17;;;;;;;1.52;1.42;;;;;;;5.27;89.86;96986.03;5113591;28;20044;-62
2022/12/02 09:44:44;;;;;;;1.90;1.67;;;;;;;5.28;90.38;96986.91;5113497;28;20066;-61
2022/12/02 09:47:12;;;;;;;1.60;1.50;;;;;;;5.27;90.03;96991.22;5113362;28;20052;-62
2022/12/02 09:49:40;;;;;;;1.58;1.48;;;;;;;5.28;89.61;96990.38;5113419;28;20115;-62
2022/12/02 09:52:14;;;;;;;1.80;1.65;;;;;;;5.26;90.16;96983.44;5113472;28;20046;-61
2022/12/02 09:54:43;;;;;;;2.13;1.70;;;;;;;5.22;90.62;96987.81;5113435;28;20416;-62
2022/12/02 09:57:13;;;;;;;1.88;1.70;;;;;;;5.27;89.86;96983.44;5116692;28;20051;-61
2022/12/02 09:59:40;;;;;;;;;;;;;;;5.35;91.00;96988.56;5117994;28;20418;-61
2022/12/02 10:02:21;;;;;;;2.13;1.70;;;;;;;5.31;91.02;96992.06;5117644;28;19920;-61
2022/12/02 10:04:48;;;;;;;2.28;2.08;;;;;;;5.33;91.08;96984.28;5117525;28;20504;-61
2022/12/02 10:07:15;;;;;;;2.65;2.17;;;;;;;5.38;91.90;96988.53;5117696;28;20050;-62
2022/12/02 10:09:42;;;;;;;2.15;1.65;;;;;;;5.48;91.90;96978.91;5117761;28;20447;-61
2022/12/02 10:12:12;;;;;;;2.85;1.30;;;;;;;5.53;92.12;96982.31;5117456;28;20051;-61
2022/12/02 10:14:39;;;;;;;1.58;1.48;;;;;;;5.54;91.66;96983.19;5117366;28;20048;-61
2022/12/02 10:17:16;;;;;;;3.17;1.60;;;;;;;5.56;91.44;96971.03;5117341;28;20416;-62
2022/12/02 10:19:44;;;;;;;2.03;1.50;;;;;;;5.61;92.22;96974.47;5117188;28;20434;-61
2022/12/02 10:22:16;;;;;;;1.60;1.40;;;;;;;5.66;91.13;96975.25;5117220;28;20462;-61
2022/12/02 10:24:44;;;;;;;1.77;1.67;;;;;;;5.69;90.75;96977.81;5117156;28;20108;-61
2022/12/02 10:27:24;;;;;;;1.80;1.65;;;;;;;5.74;90.40;96977.75;5117102;28;20404;-61
2022/12/02 10:29:51;;;;;;;1.95;1.75;;;;;;;5.72;90.29;96974.31;5117194;28;20054;-60
2022/12/02 10:32:21;;;;;;;2.03;1.60;;;;;;;5.71;90.02;96977.78;5117139;28;20083;-61
2022/12/02 10:35:02;;;;;;;2.45;1.45;;;;;;;5.71;89.88;96970.00;5117011;28;20097;-61
2022/12/02 10:37:32;;;;;;;2.72;1.98;;;;;;;5.81;90.65;96975.97;5116987;28;20117;-61
2022/12/02 10:40:15;;;;;;;1.40;1.25;;;;;;;5.87;89.85;96973.28;5116625;28;20051;-61
2022/12/02 10:42:45;;;;;;;1.60;1.50;;;;;;;5.91;91.00;96974.97;5116763;28;20073;-61
2022/12/02 10:45:18;;;;;;;1.40;1.30;;;;;;;5.98;90.78;96975.75;5116700;28;20044;-61
2022/12/02 10:47:46;;;;;;;2.15;1.38;;;;;;;6.08;90.67;96979.09;5116698;28;20477;-61
2022/12/02 10:50:20;;;;;;;1.38;1.27;;;;;;;6.22;90.85;96968.53;5116621;28;20043;-61
2022/12/02 10:52:49;;;;;;;1.60;1.40;;;;;;;6.31;88.82;96968.41;5116476;28;20443;-61
2022/12/02 10:55:18;;;;;;;1.83;1.20;;;;;;;6.36;89.09;96963.16;5116642;28;20093;-61
2022/12/02 10:57:49;;;;;;;1.27;1.15;;;;;;;6.45;88.93;96967.38;5116430;28;20067;-61
2022/12/02 11:00:19;;;;;;;1.33;1.23;;;;;;;6.50;88.76;96962.94;5116432;28;20051;-61
2022/12/02 11:02:49;;;;;;;2.90;1.65;;;;;;;6.55;88.68;96963.75;5116440;28;20155;-61
2022/12/02 11:05:19;;;;;;;1.58;1.17;;;;;;;6.68;88.31;96964.41;5116396;28;20850;-61
2022/12/02 11:07:54;;;;;;;1.20;1.10;;;;;;;6.67;87.75;96962.69;5115575;28;20620;-61
2022/12/02 11:10:24;;;;;;;1.48;1.30;;;;;;;6.70;86.30;96957.44;5116282;28;20131;-61
2022/12/02 11:13:08;;;;;;;1.45;1.35;;;;;;;6.74;85.24;96966.03;5116339;28;20058;-61
2022/12/02 11:15:43;;;;;;;1.80;1.00;;;;;;;6.76;85.48;96958.22;5116191;28;20043;-61
2022/12/02 11:18:12;;;;;;;1.50;1.40;;;;;;;6.77;86.31;96954.75;5116177;28;20487;-61
2022/12/02 11:20:43;;;;;;;1.92;1.33;;;;;;;6.82;86.40;96953.78;5116087;28;20556;-62
2022/12/02 11:23:23;;;;;;;1.30;1.20;;;;;;;6.89;85.98;96958.91;5116055;28;20052;-61
2022/12/02 11:26:05;;;;;;;2.15;1.40;;;;;;;7.02;85.68;96962.16;5115996;28;20059;-61
2022/12/02 11:29:14;;;;;;;4.70;1.10;;;;;;;7.05;86.05;96960.34;5116143;28;20505;-61
2022/12/02 11:32:01;;;;;;;1.20;1.10;;;;;;;7.14;86.67;96961.06;5116035;28;20081;-61
2022/12/02 11:34:41;;;;;;;1.40;1.30;;;;;;;7.25;86.99;96966.94;5115945;28;20040;-61
2022/12/02 11:37:26;;;;;;;;;;;;;;;7.30;86.97;96962.53;5116192;28;20063;-61
2022/12/02 11:39:54;;;;;;;1.02;1.02;;;;;;;7.35;86.77;96966.78;5115649;28;19919;-61
2022/12/02 11:42:24;;;;;;;1.85;1.30;;;;;;;7.44;85.52;96977.03;5115712;28;20047;-61
2022/12/02 11:44:51;;;;;;;1.00;1.00;;;;;;;7.45;85.65;96963.97;5115577;28;20051;-61
2022/12/02 11:47:30;;;;;;;1.08;0.98;;;;;;;7.53;84.60;96971.63;5115768;28;20056;-61
2022/12/02 11:50:18;;;;;;;0.95;0.88;;;;;;;7.63;83.89;96963.66;5115627;28;20425;-61
2022/12/02 11:52:51;;;;;;;1.48;1.38;;;;;;;7.71;84.39;96969.59;5115823;28;20058;-61
2022/12/02 11:55:20;;;;;;;1.98;1.50;;;;;;;7.78;84.70;96972.91;5115616;28;20445;-62
2022/12/02 11:57:49;;;;;;;1.00;1.00;;;;;;;7.73;84.51;96970.38;5115360;28;20485;-62